Time;durP1;ratioP1;P1;durP2;ratioP2;P2;SDS_P1;SDS_P2;PMS_P1;PMS_P2;Temp;Humidity;BMP_temperature;BMP_pressure;BME280_temperature;BME280_humidity;BME280_pressure;Samples;Min_cycle;Max_cycle;Signal;HPM_P1;HPM_P2
2023/02/13 00:00:48;;;;;;;48.33;37.10;;;7.80;99.90;;;;;;5053095;28;20477;-51
2023/02/13 00:03:15;;;;;;;47.40;37.60;;;7.80;99.90;;;;;;5052953;28;20041;-50
2023/02/13 00:05:42;;;;;;;48.45;39.38;;;7.80;99.90;;;;;;5053098;28;20136;-54
2023/02/13 00:08:12;;;;;;;51.88;39.10;;;7.70;99.90;;;;;;5052992;28;20099;-51
2023/02/13 00:10:40;;;;;;;52.08;40.17;;;7.70;99.90;;;;;;5054533;28;20052;-57
2023/02/13 00:13:07;;;;;;;47.03;38.70;;;7.70;99.90;;;;;;5055445;28;20132;-54
2023/02/13 00:15:34;;;;;;;44.63;36.17;;;7.70;99.90;;;;;;5055493;28;20047;-48
2023/02/13 00:18:01;;;;;;;44.13;36.08;;;7.70;99.90;;;;;;5056373;28;20061;-50
2023/02/13 00:20:30;;;;;;;45.42;34.88;;;7.60;99.90;;;;;;5055234;28;20072;-52
2023/02/13 00:22:57;;;;;;;43.80;35.45;;;7.60;99.90;;;;;;5056285;28;20211;-50
2023/02/13 00:25:23;;;;;;;43.80;35.15;;;7.70;99.90;;;;;;5056657;28;20041;-50
2023/02/13 00:27:50;;;;;;;39.80;31.95;;;7.60;99.90;;;;;;5056090;28;20053;-55
2023/02/13 00:30:17;;;;;;;40.03;32.72;;;7.60;99.90;;;;;;5056138;28;20037;-49
2023/02/13 00:32:44;;;;;;;39.88;31.58;;;7.50;99.90;;;;;;5056062;28;20045;-51
2023/02/13 00:35:11;;;;;;;39.10;31.63;;;7.50;99.90;;;;;;5055954;28;20077;-51
2023/02/13 00:37:37;;;;;;;40.80;30.95;;;7.50;99.90;;;;;;5056315;28;20048;-51
2023/02/13 00:40:04;;;;;;;38.42;30.65;;;7.50;99.90;;;;;;5056034;28;20500;-54
2023/02/13 00:42:31;;;;;;;37.08;29.63;;;7.50;99.90;;;;;;5055754;28;20037;-50
2023/02/13 00:44:58;;;;;;;39.38;30.23;;;7.50;99.90;;;;;;5056238;28;20076;-51
2023/02/13 00:47:24;;;;;;;39.70;30.80;;;7.50;99.90;;;;;;5055934;28;20416;-51
2023/02/13 00:49:51;;;;;;;37.58;30.23;;;7.50;99.90;;;;;;5054832;28;20167;-51
2023/02/13 00:52:18;;;;;;;40.35;31.52;;;7.50;99.90;;;;;;5055619;28;20045;-51
2023/02/13 00:54:46;;;;;;;37.47;30.77;;;7.50;99.90;;;;;;5038154;28;20037;-50
2023/02/13 00:57:13;;;;;;;39.80;31.48;;;7.50;99.90;;;;;;5055531;28;20041;-54
2023/02/13 00:59:41;;;;;;;40.28;31.58;;;7.50;99.90;;;;;;5054534;28;20415;-47
2023/02/13 01:02:08;;;;;;;37.35;30.45;;;7.50;99.90;;;;;;5053837;28;20045;-53
2023/02/13 01:04:34;;;;;;;36.00;29.17;;;7.50;99.90;;;;;;5055413;28;20041;-52
2023/02/13 01:07:01;;;;;;;37.75;29.38;;;7.50;99.90;;;;;;5055339;28;20041;-50
2023/02/13 01:09:28;;;;;;;33.97;26.88;;;7.40;99.90;;;;;;5054234;28;20102;-48
2023/02/13 01:11:54;;;;;;;33.67;27.55;;;7.50;99.90;;;;;;5053756;28;20052;-48
2023/02/13 01:14:21;;;;;;;35.20;28.70;;;7.40;99.90;;;;;;5055193;28;20053;-50
2023/02/13 01:16:48;;;;;;;35.00;26.98;;;7.40;99.90;;;;;;5055384;28;20044;-47
2023/02/13 01:19:15;;;;;;;34.92;27.65;;;7.40;99.90;;;;;;5055390;28;20049;-54
2023/02/13 01:21:41;;;;;;;34.45;26.88;;;7.50;99.90;;;;;;5052955;28;20045;-49
2023/02/13 01:24:08;;;;;;;32.08;26.42;;;7.40;99.90;;;;;;5053340;28;20049;-55
2023/02/13 01:26:35;;;;;;;34.83;25.85;;;7.40;99.90;;;;;;5053585;28;20052;-53
2023/02/13 01:29:02;;;;;;;29.70;23.85;;;7.40;99.90;;;;;;5053691;28;20041;-53
2023/02/13 01:31:28;;;;;;;29.88;24.25;;;7.40;99.90;;;;;;5054837;28;20037;-53
2023/02/13 01:33:55;;;;;;;28.65;23.08;;;7.40;99.90;;;;;;5053463;28;20151;-49
2023/02/13 01:36:22;;;;;;;29.05;23.50;;;7.40;99.90;;;;;;5054830;28;20044;-52
2023/02/13 01:38:49;;;;;;;29.38;23.60;;;7.40;99.90;;;;;;5054909;28;20106;-48
2023/02/13 01:41:15;;;;;;;28.13;23.52;;;7.40;99.90;;;;;;5054821;28;20106;-49
2023/02/13 01:43:42;;;;;;;27.33;22.83;;;7.40;99.90;;;;;;5053332;28;20485;-50
2023/02/13 01:46:10;;;;;;;30.85;24.08;;;7.40;99.90;;;;;;5054938;28;20377;-52
2023/02/13 01:48:36;;;;;;;27.08;23.15;;;7.40;99.90;;;;;;5054388;28;20538;-51
2023/02/13 01:51:03;;;;;;;26.13;21.63;;;7.40;99.90;;;;;;5054704;28;20044;-48
2023/02/13 01:53:30;;;;;;;29.13;22.42;;;7.40;99.90;;;;;;5054990;28;20381;-48
2023/02/13 01:55:57;;;;;;;28.20;22.08;;;7.40;99.90;;;;;;5053283;28;20186;-54
2023/02/13 01:58:24;;;;;;;27.45;22.73;;;7.40;99.90;;;;;;5053514;28;20059;-55
2023/02/13 02:00:51;;;;;;;27.42;22.15;;;7.40;99.90;;;;;;5053208;28;20053;-51
2023/02/13 02:03:18;;;;;;;26.92;22.50;;;7.40;99.90;;;;;;5052996;28;20397;-54
2023/02/13 02:05:49;;;;;;;26.80;23.15;;;7.40;99.90;;;;;;5053257;28;20045;-48
2023/02/13 02:08:16;;;;;;;29.70;24.27;;;7.40;99.90;;;;;;5052952;28;20041;-47
2023/02/13 02:10:43;;;;;;;29.63;23.63;;;7.40;99.90;;;;;;5053980;28;20063;-47
2023/02/13 02:13:09;;;;;;;27.83;22.83;;;7.40;99.90;;;;;;5054088;28;20053;-48
2023/02/13 02:15:38;;;;;;;28.08;22.95;;;7.40;99.90;;;;;;5052545;28;20072;-48
2023/02/13 02:18:05;;;;;;;29.70;23.08;;;7.40;99.90;;;;;;5052563;28;20052;-49
2023/02/13 02:20:31;;;;;;;28.92;23.83;;;7.40;99.90;;;;;;5052629;28;20040;-49
2023/02/13 02:22:58;;;;;;;28.83;22.98;;;7.40;99.90;;;;;;5052560;28;20550;-47
2023/02/13 02:25:26;;;;;;;27.85;23.60;;;7.40;99.90;;;;;;5052440;28;20045;-50
2023/02/13 02:27:54;;;;;;;30.27;23.90;;;7.30;99.90;;;;;;5052819;28;20048;-47
2023/02/13 02:30:23;;;;;;;27.70;23.30;;;7.30;99.90;;;;;;5052790;28;20045;-52
2023/02/13 02:32:50;;;;;;;34.25;24.83;;;7.30;99.90;;;;;;5052700;28;20431;-55
2023/02/13 02:35:17;;;;;;;30.90;24.40;;;7.20;99.90;;;;;;5052469;28;20492;-53
2023/02/13 02:37:44;;;;;;;30.25;24.05;;;7.20;99.90;;;;;;5052018;28;20059;-53
2023/02/13 02:40:11;;;;;;;28.80;23.98;;;7.20;99.90;;;;;;5035655;28;20045;-49
2023/02/13 02:42:37;;;;;;;32.00;24.33;;;7.20;99.90;;;;;;5053425;28;20064;-53
2023/02/13 02:45:05;;;;;;;30.38;23.85;;;7.10;99.90;;;;;;5052081;28;20128;-51
2023/02/13 02:50:19;;;;;;;33.22;25.02;;;7.00;99.90;;;;;;5052128;28;20053;-53
2023/02/13 02:52:45;;;;;;;33.00;25.85;;;7.00;99.90;;;;;;5051881;28;20053;-49
2023/02/13 02:55:13;;;;;;;29.85;23.70;;;6.90;99.90;;;;;;5051942;28;20053;-51
2023/02/13 03:06:12;;;;;;;30.30;24.70;;;6.60;99.90;;;;;;5053005;28;20045;-51
2023/02/13 03:14:10;;;;;;;32.63;24.40;;;6.30;99.90;;;;;;5053491;28;20071;-52
2023/02/13 03:22:18;;;;;;;34.92;26.38;;;6.10;99.90;;;;;;5053247;28;20041;-53
2023/02/13 03:24:44;;;;;;;34.97;24.70;;;6.00;99.90;;;;;;5053341;28;20041;-51
2023/02/13 03:27:11;;;;;;;33.22;25.83;;;5.90;99.90;;;;;;5053226;28;20095;-55
2023/02/13 03:32:24;;;;;;;35.30;25.77;;;5.80;99.90;;;;;;5053213;28;20049;-53
2023/02/13 03:37:54;;;;;;;35.50;24.65;;;5.70;99.90;;;;;;5053436;28;20116;-50
2023/02/13 03:40:21;;;;;;;36.08;25.73;;;5.70;99.90;;;;;;5053124;28;20098;-55
2023/02/13 03:42:48;;;;;;;33.28;26.23;;;5.60;99.90;;;;;;5053050;28;20068;-54
2023/02/13 03:48:08;;;;;;;33.97;25.73;;;5.50;99.90;;;;;;5056748;28;20064;-53
2023/02/13 03:50:35;;;;;;;33.20;25.50;;;5.40;99.90;;;;;;5057279;28;20049;-55
2023/02/13 03:53:01;;;;;;;32.80;25.15;;;5.40;99.90;;;;;;5056928;28;20049;-54
2023/02/13 04:00:59;;;;;;;33.78;25.75;;;5.40;99.90;;;;;;5056566;28;20037;-54
2023/02/13 04:03:26;;;;;;;35.72;25.48;;;5.50;99.90;;;;;;5056679;28;20073;-51
2023/02/13 04:05:53;;;;;;;35.15;25.92;;;5.50;99.90;;;;;;5056766;28;20044;-52
2023/02/13 04:08:20;;;;;;;34.22;24.73;;;5.40;99.90;;;;;;5056885;28;20037;-54
2023/02/13 04:10:47;;;;;;;36.35;25.50;;;5.40;99.90;;;;;;5056537;28;20546;-52
2023/02/13 04:13:13;;;;;;;33.92;25.52;;;5.40;99.90;;;;;;5055008;28;20067;-53
2023/02/13 04:15:40;;;;;;;33.92;24.60;;;5.30;99.90;;;;;;5056523;28;20048;-52
2023/02/13 04:18:07;;;;;;;35.65;26.67;;;5.30;99.90;;;;;;5056452;28;20064;-53
2023/02/13 04:20:36;;;;;;;32.53;24.52;;;5.30;99.90;;;;;;5056512;28;20048;-52
2023/02/13 04:23:02;;;;;;;35.42;26.02;;;5.30;99.90;;;;;;5056332;28;20071;-51
2023/02/13 04:25:29;;;;;;;35.05;25.95;;;5.20;99.90;;;;;;5055101;28;20480;-50
2023/02/13 04:27:56;;;;;;;35.88;25.92;;;5.10;99.90;;;;;;5056448;28;20045;-51
2023/02/13 04:30:23;;;;;;;36.53;25.42;;;5.10;99.90;;;;;;5056482;28;20037;-53
2023/02/13 04:32:51;;;;;;;38.53;25.70;;;5.10;99.90;;;;;;5056536;28;20065;-50
2023/02/13 04:35:18;;;;;;;33.38;24.40;;;5.00;99.90;;;;;;5056238;28;20052;-54
2023/02/13 04:37:45;;;;;;;37.92;25.08;;;4.90;99.90;;;;;;5056183;28;20049;-54
2023/02/13 04:40:11;;;;;;;36.38;25.67;;;4.90;99.90;;;;;;5054701;28;20084;-50
2023/02/13 04:42:38;;;;;;;34.85;24.85;;;4.90;99.90;;;;;;5056109;28;20099;-53
2023/02/13 04:45:05;;;;;;;36.28;25.50;;;4.90;99.90;;;;;;5055885;28;20052;-53
2023/02/13 04:47:31;;;;;;;38.30;25.90;;;4.90;99.90;;;;;;5056102;28;20411;-53
2023/02/13 04:49:58;;;;;;;38.30;27.00;;;4.80;99.90;;;;;;5055850;28;20438;-53
2023/02/13 04:52:25;;;;;;;35.80;26.45;;;4.70;99.90;;;;;;5056175;28;20457;-52
2023/02/13 04:54:53;;;;;;;36.60;25.75;;;4.70;99.90;;;;;;5054860;28;20069;-47
2023/02/13 04:57:19;;;;;;;37.58;26.10;;;4.70;99.90;;;;;;5055558;28;20087;-50
2023/02/13 04:59:46;;;;;;;34.78;25.85;;;4.60;99.90;;;;;;5055707;28;20118;-48
2023/02/13 05:02:13;;;;;;;36.35;25.85;;;4.60;99.90;;;;;;5055754;28;20389;-48
2023/02/13 05:04:39;;;;;;;38.08;26.85;;;4.50;99.90;;;;;;5054020;28;20033;-50
2023/02/13 05:07:06;;;;;;;39.95;26.88;;;4.50;99.90;;;;;;5055388;28;20488;-51
2023/02/13 05:09:33;;;;;;;35.13;25.35;;;4.40;99.90;;;;;;5055105;28;20037;-49
2023/02/13 05:12:00;;;;;;;37.20;26.83;;;4.40;99.90;;;;;;5054955;28;20496;-50
2023/02/13 05:14:27;;;;;;;37.50;25.75;;;4.30;99.90;;;;;;5055123;28;20449;-48
2023/02/13 05:16:54;;;;;;;36.78;25.92;;;4.30;99.90;;;;;;5055639;28;20040;-49
2023/02/13 05:19:21;;;;;;;37.15;25.83;;;4.20;99.90;;;;;;5055284;28;20049;-48
2023/02/13 05:24:33;;;;;;;39.37;26.57;;;4.20;99.90;;;;;;5055083;28;20052;-51
2023/02/13 05:26:59;;;;;;;35.45;24.95;;;4.10;99.90;;;;;;5054781;28;20037;-54
2023/02/13 05:29:26;;;;;;;37.28;26.60;;;4.10;99.90;;;;;;5054844;28;20044;-52
2023/02/13 05:31:53;;;;;;;33.95;24.48;;;4.10;99.90;;;;;;5055131;28;20399;-53
2023/02/13 05:34:20;;;;;;;33.47;23.88;;;4.10;99.90;;;;;;5055130;28;20083;-52
2023/02/13 05:36:47;;;;;;;34.65;25.85;;;4.00;99.90;;;;;;5054997;28;20098;-55
2023/02/13 05:39:14;;;;;;;40.78;26.35;;;4.00;99.90;;;;;;5054907;28;20048;-54
2023/02/13 05:41:41;;;;;;;33.90;25.02;;;4.00;99.90;;;;;;5054705;28;20068;-54
2023/02/13 05:44:07;;;;;;;34.72;24.83;;;4.00;99.90;;;;;;5054731;28;20037;-53
2023/02/13 05:46:34;;;;;;;33.90;24.80;;;3.90;99.90;;;;;;5055032;28;20452;-51
2023/02/13 05:49:01;;;;;;;36.78;25.83;;;3.80;99.90;;;;;;5054692;28;20484;-48
2023/02/13 05:51:30;;;;;;;34.05;24.42;;;3.80;99.90;;;;;;5054356;28;20041;-53
2023/02/13 05:53:57;;;;;;;36.28;25.52;;;3.80;99.90;;;;;;5054891;28;20045;-49
2023/02/13 05:56:23;;;;;;;35.38;25.38;;;3.70;99.90;;;;;;5054364;28;20052;-53
2023/02/13 05:58:50;;;;;;;35.45;25.13;;;3.70;99.90;;;;;;5054624;28;20052;-51
2023/02/13 06:01:17;;;;;;;34.65;24.33;;;3.70;99.90;;;;;;5054741;28;20041;-51
2023/02/13 06:03:44;;;;;;;36.78;25.30;;;3.70;99.90;;;;;;5054692;28;20041;-52
2023/02/13 06:06:10;;;;;;;39.42;27.30;;;3.70;99.90;;;;;;5054130;28;20069;-49
2023/02/13 06:08:37;;;;;;;39.65;26.25;;;3.60;99.90;;;;;;5053811;28;20080;-52
2023/02/13 06:11:04;;;;;;;37.72;26.42;;;3.60;99.90;;;;;;5054415;28;20060;-52
2023/02/13 06:13:30;;;;;;;35.83;24.73;;;3.50;99.90;;;;;;5054382;28;20423;-51
2023/02/13 06:15:57;;;;;;;39.50;27.08;;;3.50;99.90;;;;;;5054659;28;20071;-50
2023/02/13 06:18:24;;;;;;;38.83;27.00;;;3.40;99.90;;;;;;5052870;28;20044;-52
2023/02/13 06:20:51;;;;;;;39.70;27.85;;;3.40;99.90;;;;;;5054395;28;20120;-49
2023/02/13 06:23:17;;;;;;;37.35;26.13;;;3.40;99.90;;;;;;5052870;28;20069;-52
2023/02/13 06:25:44;;;;;;;41.40;26.50;;;3.40;99.90;;;;;;5054187;28;20120;-51
2023/02/13 06:28:11;;;;;;;41.30;27.77;;;3.30;99.90;;;;;;5053832;28;20051;-52
2023/02/13 06:30:38;;;;;;;40.50;28.35;;;3.30;99.90;;;;;;5052629;28;20120;-52
2023/02/13 06:33:04;;;;;;;41.42;27.05;;;3.30;99.90;;;;;;5054242;28;20464;-51
2023/02/13 06:35:31;;;;;;;41.53;28.48;;;3.30;99.90;;;;;;5053920;28;20128;-51
2023/02/13 06:37:58;;;;;;;44.17;29.35;;;3.30;99.90;;;;;;5053601;28;20045;-50
2023/02/13 06:40:25;;;;;;;42.70;29.05;;;3.20;99.90;;;;;;5053743;28;20041;-53
2023/02/13 06:42:52;;;;;;;44.33;30.33;;;3.20;99.90;;;;;;5053667;28;20488;-48
2023/02/13 06:45:18;;;;;;;44.40;29.20;;;3.20;99.90;;;;;;5053821;28;20072;-48
2023/02/13 06:47:45;;;;;;;45.25;29.40;;;3.10;99.90;;;;;;5053974;28;20040;-54
2023/02/13 06:50:12;;;;;;;40.88;28.08;;;3.10;99.90;;;;;;5053376;28;20057;-50
2023/02/13 06:52:38;;;;;;;45.22;28.85;;;3.20;99.90;;;;;;5053845;28;20033;-55
2023/02/13 06:55:05;;;;;;;43.03;27.70;;;3.20;99.90;;;;;;5053596;28;20136;-53
2023/02/13 06:57:32;;;;;;;38.60;27.00;;;3.10;99.90;;;;;;5053440;28;20040;-47
2023/02/13 06:59:59;;;;;;;39.83;27.92;;;3.10;99.90;;;;;;5053790;28;20063;-51
2023/02/13 07:02:26;;;;;;;41.47;27.73;;;3.00;99.90;;;;;;5053585;28;20108;-52
2023/02/13 07:04:52;;;;;;;43.13;28.02;;;3.00;99.90;;;;;;5053506;28;20476;-50
2023/02/13 07:07:19;;;;;;;44.25;28.92;;;3.00;99.90;;;;;;5053616;28;20040;-50
2023/02/13 07:09:46;;;;;;;46.13;28.05;;;3.00;99.90;;;;;;5053158;28;20049;-53
2023/02/13 07:12:13;;;;;;;48.75;28.55;;;3.00;99.90;;;;;;5051570;28;20060;-51
2023/02/13 07:14:39;;;;;;;45.15;29.75;;;3.00;99.90;;;;;;5053275;28;20060;-49
2023/02/13 07:17:06;;;;;;;44.22;28.83;;;3.00;99.90;;;;;;5053055;28;20041;-49
2023/02/13 07:19:33;;;;;;;43.13;28.70;;;2.90;99.90;;;;;;5053544;28;20128;-53
2023/02/13 07:22:00;;;;;;;43.30;28.33;;;2.90;99.90;;;;;;5057101;28;20049;-50
2023/02/13 07:24:26;;;;;;;45.33;30.63;;;2.90;99.90;;;;;;5057173;28;20051;-52
2023/02/13 07:26:53;;;;;;;45.55;30.40;;;2.90;99.90;;;;;;5057031;28;20071;-50
2023/02/13 07:29:20;;;;;;;48.08;30.48;;;2.90;99.90;;;;;;5056380;28;20037;-51
2023/02/13 07:31:46;;;;;;;45.20;29.02;;;2.90;99.90;;;;;;5057160;28;20041;-52
2023/02/13 07:34:13;;;;;;;47.72;30.15;;;2.90;99.90;;;;;;5057432;28;20435;-50
2023/02/13 07:36:40;;;;;;;49.53;29.58;;;2.80;99.90;;;;;;5057328;28;20095;-48
2023/02/13 07:39:07;;;;;;;47.88;31.60;;;2.80;99.90;;;;;;5057026;28;20080;-47
2023/02/13 07:41:33;;;;;;;44.15;29.70;;;2.80;99.90;;;;;;5057175;28;20049;-49
2023/02/13 07:44:00;;;;;;;123.43;60.20;;;2.90;99.90;;;;;;5057201;28;20154;-47
2023/02/13 07:46:27;;;;;;;60.15;36.40;;;2.90;99.90;;;;;;5056935;28;20063;-48
2023/02/13 07:48:54;;;;;;;49.75;32.03;;;2.90;99.90;;;;;;5056914;28;20090;-50
2023/02/13 07:51:24;;;;;;;50.72;31.33;;;2.90;99.90;;;;;;5056736;28;20033;-49
2023/02/13 07:53:51;;;;;;;50.78;33.00;;;2.80;99.90;;;;;;5056533;28;20041;-50
2023/02/13 07:56:17;;;;;;;49.25;32.15;;;2.80;99.90;;;;;;5056851;28;20126;-50
2023/02/13 07:58:44;;;;;;;47.33;32.58;;;2.80;99.90;;;;;;5056957;28;20053;-53
2023/02/13 08:01:11;;;;;;;47.85;31.38;;;2.80;99.90;;;;;;5056711;28;20129;-49
2023/02/13 08:03:38;;;;;;;44.72;30.58;;;2.80;99.90;;;;;;5056671;28;20041;-51
2023/02/13 08:06:04;;;;;;;46.40;31.33;;;2.80;99.90;;;;;;5056794;28;20033;-53
2023/02/13 08:08:31;;;;;;;48.75;31.80;;;2.80;99.90;;;;;;5056788;28;20075;-54
2023/02/13 08:13:43;;;;;;;52.00;34.90;;;2.90;99.90;;;;;;5056169;28;20110;-51
2023/02/13 08:16:10;;;;;;;52.00;34.58;;;2.90;99.90;;;;;;5056477;28;20052;-52
2023/02/13 08:18:37;;;;;;;54.30;34.70;;;2.90;99.90;;;;;;5056364;28;20047;-48
2023/02/13 08:21:03;;;;;;;51.08;33.58;;;3.00;99.90;;;;;;5056270;28;20052;-55
2023/02/13 08:23:30;;;;;;;52.63;34.00;;;3.10;99.90;;;;;;5056570;28;20142;-53
2023/02/13 08:25:57;;;;;;;53.97;35.00;;;3.10;99.90;;;;;;5056084;28;20479;-50
2023/02/13 08:28:24;;;;;;;54.45;34.50;;;3.20;99.90;;;;;;5056207;28;20108;-52
2023/02/13 08:30:51;;;;;;;53.90;33.53;;;3.20;99.90;;;;;;5055661;28;20040;-53
2023/02/13 08:33:18;;;;;;;53.67;35.17;;;3.30;99.90;;;;;;5055990;28;20087;-49
2023/02/13 08:35:44;;;;;;;61.00;35.25;;;3.40;99.90;;;;;;5056241;28;20119;-56
2023/02/13 08:38:11;;;;;;;57.80;35.45;;;3.50;99.90;;;;;;5054589;28;20201;-54
2023/02/13 08:40:38;;;;;;;59.38;37.08;;;3.50;99.90;;;;;;5056043;28;20472;-54
2023/02/13 08:43:05;;;;;;;53.75;35.00;;;3.60;99.90;;;;;;5056026;28;20464;-53
2023/02/13 08:45:31;;;;;;;61.60;36.10;;;3.60;99.90;;;;;;5055759;28;20060;-51
2023/02/13 08:47:58;;;;;;;58.75;36.00;;;3.80;99.90;;;;;;5054615;28;20386;-56
2023/02/13 08:50:25;;;;;;;56.25;35.63;;;3.80;99.90;;;;;;5054204;28;20488;-54
2023/02/13 08:52:52;;;;;;;53.10;34.55;;;3.90;99.90;;;;;;5056000;28;20077;-51
2023/02/13 08:55:19;;;;;;;53.15;33.88;;;4.00;99.90;;;;;;5054304;28;20041;-54
2023/02/13 08:57:45;;;;;;;52.95;34.70;;;4.00;99.90;;;;;;5055557;28;20091;-55
2023/02/13 09:00:13;;;;;;;51.35;36.40;;;4.10;99.90;;;;;;5055430;28;20041;-53
2023/02/13 09:02:40;;;;;;;50.90;33.83;;;4.20;99.90;;;;;;5055666;28;20041;-55
2023/02/13 09:05:07;;;;;;;46.97;31.55;;;4.30;99.90;;;;;;5055359;28;20384;-55
2023/02/13 09:07:33;;;;;;;50.28;32.40;;;4.30;99.90;;;;;;5055475;28;20091;-55
2023/02/13 09:10:00;;;;;;;48.17;30.83;;;4.40;99.90;;;;;;5055387;28;20041;-54
2023/02/13 09:12:27;;;;;;;49.53;30.65;;;4.40;99.90;;;;;;5055132;28;20128;-54
2023/02/13 09:14:53;;;;;;;46.88;30.52;;;4.50;99.90;;;;;;5055719;28;20423;-51
2023/02/13 09:17:20;;;;;;;45.35;30.13;;;4.60;99.90;;;;;;5055051;28;20373;-54
2023/02/13 09:19:47;;;;;;;43.50;29.25;;;4.70;99.90;;;;;;5055438;28;20068;-54
2023/02/13 09:22:15;;;;;;;46.28;30.25;;;4.70;99.90;;;;;;5055000;28;20083;-54
2023/02/13 09:24:42;;;;;;;44.15;29.70;;;4.80;99.90;;;;;;5054855;28;20048;-54
2023/02/13 09:27:09;;;;;;;44.33;28.80;;;4.90;99.90;;;;;;5055328;28;20049;-50
2023/02/13 09:29:36;;;;;;;95.25;59.10;;;5.00;99.90;;;;;;5055171;28;20041;-53
2023/02/13 09:32:03;;;;;;;45.40;32.25;;;5.00;99.90;;;;;;5054948;28;20446;-54
2023/02/13 09:34:30;;;;;;;45.83;31.23;;;5.10;99.90;;;;;;5054636;28;20041;-54
2023/02/13 09:36:56;;;;;;;53.95;37.03;;;5.20;99.90;;;;;;5055036;28;20090;-51
2023/02/13 09:39:23;;;;;;;39.55;28.50;;;5.20;99.90;;;;;;5054315;28;20037;-52
2023/02/13 09:41:50;;;;;;;37.97;27.45;;;5.30;99.90;;;;;;5054620;28;20040;-52
2023/02/13 09:44:37;;;;;;;37.50;26.25;;;5.40;99.90;;;;;;5052887;28;20037;-55
2023/02/13 09:47:04;;;;;;;47.90;25.52;;;5.50;99.90;;;;;;5054514;28;20048;-52
2023/02/13 09:49:31;;;;;;;35.65;24.45;;;5.60;99.90;;;;;;5054272;28;20044;-51
2023/02/13 09:51:58;;;;;;;34.97;24.33;;;5.70;99.90;;;;;;5053602;28;20045;-51
2023/02/13 09:54:25;;;;;;;33.55;23.45;;;5.80;99.90;;;;;;5054559;28;20377;-50
2023/02/13 09:56:53;;;;;;;33.38;24.90;;;5.90;99.90;;;;;;5054148;28;20450;-52
2023/02/13 09:59:20;;;;;;;34.22;23.50;;;5.90;99.90;;;;;;5054645;28;20459;-54
2023/02/13 10:01:47;;;;;;;31.58;23.00;;;6.00;99.90;;;;;;5054098;28;20091;-53
2023/02/13 10:04:14;;;;;;;30.33;21.77;;;6.10;99.90;;;;;;5054333;28;20099;-52
2023/02/13 10:06:48;;;;;;;33.15;22.38;;;6.10;99.90;;;;;;5054420;28;20045;-51
2023/02/13 10:09:15;;;;;;;34.88;23.30;;;6.20;99.90;;;;;;5054394;28;20124;-51
2023/02/13 10:11:42;;;;;;;29.75;21.65;;;6.30;99.90;;;;;;5054448;28;20150;-51
2023/02/13 10:14:09;;;;;;;32.83;22.98;;;6.30;99.90;;;;;;5053916;28;20412;-54
2023/02/13 10:16:36;;;;;;;29.33;22.23;;;6.40;99.90;;;;;;5054309;28;20044;-53
2023/02/13 10:19:02;;;;;;;28.42;20.85;;;6.50;99.90;;;;;;5054409;28;20053;-54
2023/02/13 10:21:29;;;;;;;27.63;20.75;;;6.50;99.90;;;;;;5054081;28;20045;-55
2023/02/13 10:23:56;;;;;;;29.85;21.52;;;6.60;99.90;;;;;;5054110;28;20049;-54
2023/02/13 10:26:22;;;;;;;27.92;21.25;;;6.70;99.90;;;;;;5054053;28;20040;-56
2023/02/13 10:30:03;;;;;;;27.98;19.90;;;6.70;99.90;;;;;;5054229;28;20095;-56
2023/02/13 10:31:36;;;;;;;26.02;19.75;;;6.80;99.90;;;;;;5053870;28;20044;-53
2023/02/13 10:34:03;;;;;;;30.58;21.48;;;6.80;99.90;;;;;;5052316;28;20037;-51
2023/02/13 10:36:29;;;;;;;23.92;18.38;;;6.90;99.90;;;;;;5053530;28;20051;-53
2023/02/13 10:38:56;;;;;;;31.58;20.20;;;6.90;99.90;;;;;;5053853;28;20048;-53
2023/02/13 10:41:23;;;;;;;33.13;20.45;;;7.00;99.90;;;;;;5052879;28;20052;-55
2023/02/13 10:43:50;;;;;;;30.00;19.95;;;7.10;99.90;;;;;;5052579;28;20056;-51
2023/02/13 10:46:16;;;;;;;32.22;19.40;;;7.10;99.90;;;;;;5053490;28;20468;-55
2023/02/13 10:48:43;;;;;;;34.92;21.20;;;7.20;99.90;;;;;;5053866;28;20067;-53
2023/02/13 10:51:12;;;;;;;26.30;18.58;;;7.30;99.90;;;;;;5053560;28;20037;-55
2023/02/13 10:53:39;;;;;;;28.50;18.83;;;7.30;99.90;;;;;;5053185;28;20072;-53
2023/02/13 10:56:05;;;;;;;23.13;18.90;;;7.40;99.90;;;;;;5053551;28;20045;-54
2023/02/13 10:58:32;;;;;;;23.80;18.38;;;7.40;99.90;;;;;;5054058;28;20053;-55
2023/02/13 11:00:59;;;;;;;22.55;18.13;;;7.40;99.90;;;;;;5053556;28;20132;-55
2023/02/13 11:03:26;;;;;;;24.00;18.08;;;7.40;99.90;;;;;;5053538;28;20049;-53
2023/02/13 11:05:52;;;;;;;26.70;18.80;;;7.50;99.90;;;;;;5053400;28;20041;-56
2023/02/13 11:08:19;;;;;;;32.70;19.67;;;7.50;99.90;;;;;;5052201;28;20393;-55
2023/02/13 11:10:46;;;;;;;23.00;18.45;;;7.60;99.90;;;;;;5053327;28;20033;-49
2023/02/13 11:13:13;;;;;;;26.48;18.88;;;7.70;99.90;;;;;;5053268;28;20081;-52
2023/02/13 11:15:40;;;;;;;22.45;18.08;;;7.70;99.90;;;;;;5053626;28;20522;-53
2023/02/13 11:18:06;;;;;;;24.58;18.75;;;7.70;99.90;;;;;;5053381;28;20045;-53
2023/02/13 11:20:33;;;;;;;25.95;17.67;;;7.80;99.90;;;;;;5053171;28;20041;-54
2023/02/13 11:23:00;;;;;;;25.05;19.30;;;7.80;99.90;;;;;;5053217;28;20041;-52
2023/02/13 11:25:30;;;;;;;24.83;18.88;;;7.90;99.90;;;;;;5053542;28;20041;-55
2023/02/13 11:27:56;;;;;;;23.83;18.45;;;7.90;99.90;;;;;;5053269;28;20395;-52
2023/02/13 11:30:23;;;;;;;25.35;18.67;;;8.00;99.90;;;;;;5053122;28;20098;-54
2023/02/13 11:32:50;;;;;;;32.63;19.77;;;8.00;99.90;;;;;;5053270;28;20500;-51
2023/02/13 11:35:17;;;;;;;32.83;18.33;;;8.00;99.90;;;;;;5053413;28;20045;-56
2023/02/13 11:37:43;;;;;;;21.98;17.95;;;8.00;99.90;;;;;;5052830;28;20106;-49
2023/02/13 11:40:10;;;;;;;23.52;18.20;;;8.00;99.90;;;;;;5053188;28;20096;-54
2023/02/13 11:42:37;;;;;;;30.05;17.90;;;8.10;99.90;;;;;;5053189;28;20064;-54
2023/02/13 11:45:04;;;;;;;26.00;17.95;;;8.10;99.90;;;;;;5053335;28;20049;-51
2023/02/13 11:47:31;;;;;;;88.43;25.60;;;8.20;99.90;;;;;;5053038;28;20041;-53
2023/02/13 11:49:57;;;;;;;37.95;19.33;;;8.30;99.90;;;;;;5052998;28;20044;-53
2023/02/13 11:52:24;;;;;;;32.67;18.80;;;8.40;99.90;;;;;;5052930;28;20103;-56
2023/02/13 11:54:51;;;;;;;25.63;18.50;;;8.50;99.90;;;;;;5053092;28;20037;-55
2023/02/13 11:57:18;;;;;;;68.45;20.52;;;8.50;99.90;;;;;;5053031;28;20106;-51
2023/02/13 11:59:44;;;;;;;27.38;18.90;;;8.50;99.90;;;;;;5053077;28;20072;-49
2023/02/13 12:02:11;;;;;;;374.08;55.85;;;8.60;99.90;;;;;;5052720;28;20087;-53
2023/02/13 12:04:38;;;;;;;27.27;19.17;;;8.60;99.90;;;;;;5053003;28;20472;-53
2023/02/13 12:07:05;;;;;;;26.13;18.83;;;8.60;99.90;;;;;;5054908;28;20033;-51
2023/02/13 12:09:31;;;;;;;22.73;18.75;;;8.60;99.90;;;;;;5055524;28;20103;-50
2023/02/13 12:11:58;;;;;;;23.33;18.73;;;8.70;99.90;;;;;;5056708;28;20464;-55
2023/02/13 12:14:25;;;;;;;23.95;18.95;;;8.70;99.90;;;;;;5056337;28;20052;-54
2023/02/13 12:16:52;;;;;;;23.33;18.83;;;8.60;99.90;;;;;;5056435;28;20191;-52
2023/02/13 12:19:18;;;;;;;28.70;19.27;;;8.70;99.90;;;;;;5056662;28;20049;-52
2023/02/13 12:21:45;;;;;;;25.23;19.77;;;8.70;99.90;;;;;;5056241;28;20049;-53
2023/02/13 12:24:12;;;;;;;25.98;19.13;;;8.70;99.90;;;;;;5056716;28;20138;-55
2023/02/13 12:26:39;;;;;;;20.88;17.30;;;8.80;99.90;;;;;;5055810;28;20072;-53
2023/02/13 12:29:06;;;;;;;24.92;19.38;;;8.80;99.90;;;;;;5056263;28;20041;-50
2023/02/13 12:31:33;;;;;;;25.58;18.58;;;8.90;99.90;;;;;;5056373;28;20499;-52
2023/02/13 12:34:00;;;;;;;26.05;19.48;;;8.90;99.90;;;;;;5056490;28;20481;-51
2023/02/13 12:36:26;;;;;;;28.23;19.98;;;8.90;99.90;;;;;;5056097;28;20045;-53
2023/02/13 12:38:53;;;;;;;25.30;19.65;;;8.90;99.90;;;;;;5055824;28;20041;-56
2023/02/13 12:41:20;;;;;;;29.23;20.23;;;9.00;99.90;;;;;;5055871;28;20381;-54
2023/02/13 12:43:47;;;;;;;24.88;20.25;;;9.00;99.90;;;;;;5056008;28;20115;-53
2023/02/13 12:46:13;;;;;;;25.95;20.52;;;9.10;99.90;;;;;;5055944;28;20048;-48
2023/02/13 12:48:40;;;;;;;26.83;20.40;;;9.00;99.90;;;;;;5056054;28;20064;-50
2023/02/13 12:51:07;;;;;;;27.35;20.42;;;9.10;99.90;;;;;;5055782;28;20037;-52
2023/02/13 12:53:34;;;;;;;25.42;19.98;;;9.10;99.90;;;;;;5055749;28;20094;-54
2023/02/13 12:56:00;;;;;;;24.83;20.40;;;9.10;99.90;;;;;;5054449;28;20128;-54
2023/02/13 12:58:27;;;;;;;24.90;20.55;;;9.10;99.90;;;;;;5055575;28;20476;-55
2023/02/13 13:00:54;;;;;;;25.10;18.75;;;9.20;99.90;;;;;;5055732;28;20102;-51
2023/02/13 13:03:21;;;;;;;24.85;18.80;;;9.20;99.90;;;;;;5055823;28;20095;-54
2023/02/13 13:05:48;;;;;;;25.80;18.83;;;9.30;99.90;;;;;;5054066;28;20385;-54
2023/02/13 13:08:28;;;;;;;22.85;17.58;;;9.30;99.90;;;;;;5055588;28;20041;-53
2023/02/13 13:10:55;;;;;;;25.77;18.83;;;9.40;99.90;;;;;;5055936;28;20044;-53
2023/02/13 13:13:22;;;;;;;22.08;17.30;;;9.50;99.90;;;;;;5055103;28;20049;-53
2023/02/13 13:15:49;;;;;;;23.50;18.85;;;9.50;99.90;;;;;;5055623;28;20538;-53